VTST

Trang Airport

Thailand
TAF VTST 212300Z 2200/2224 32006KT 9999 SCT020 TEMPO 2202/2206 VRB10G20KT 3000 TSRA FEW018CB SCT020 BKN100 TEMPO 2206/2212 VRB10G20KT 5000 TSRA FEW018CB SCT020 BKN100 BECMG 2214/2216 00000KT 8000
Issued Valid From Valid To
Sep-21 @ 23:00 UTC
(5 hours ago)
Sep-22 @ 00:00 UTC
(4 hours ago)
Sep-23 @ 00:00 UTC
(in 20 hours)
to
to
to
to
TAF VTST 212300Z 2200/2224 32006KT 9999 SCT020 TEMPO 2202/2206 VRB10G20KT 3000 TSRA FEW018CB SCT020 BKN100 TEMPO 2206/2212 VRB10G20KT 5000 TSRA FEW018CB SCT020 BKN100 BECMG 2214/2216 00000KT 8000
Issued Sep-21 @ 23:00 UTC
(5 hours ago)
Valid From Sep-22 @ 00:00 UTC
(4 hours ago)
Valid To Sep-23 @ 00:00 UTC
(in 20 hours)
-
-
-
-